Time;durP1;ratioP1;P1;durP2;ratioP2;P2;SDS_P1;SDS_P2;PMS_P1;PMS_P2;Temp;Humidity;BMP_temperature;BMP_pressure;BME280_temperature;BME280_humidity;BME280_pressure;Samples;Min_cycle;Max_cycle;Signal;HPM_P1;HPM_P2
2022/01/16 00:00:21;;;;;;;32.87;21.47;;;;;;;;;;5010941;28;20033;-68
2022/01/16 00:05:26;;;;;;;34.85;21.05;;;;;;;;;;5031680;28;20397;-68
2022/01/16 00:07:51;;;;;;;32.93;21.23;;;;;;;;;;5030422;28;20477;-68
2022/01/16 00:10:18;;;;;;;36.53;21.70;;;;;;;;;;5031845;28;20034;-67
2022/01/16 00:12:47;;;;;;;31.73;21.30;;;;;;;;;;5027166;28;20036;-68
2022/01/16 00:15:13;;;;;;;35.63;22.23;;;;;;;;;;5034068;28;20071;-68
2022/01/16 00:17:48;;;;;;;39.00;23.07;;;;;;;;;;5042943;28;20482;-68
2022/01/16 00:20:13;;;;;;;33.83;22.57;;;;;;;;;;5027264;28;20065;-68
2022/01/16 00:22:41;;;;;;;36.93;22.50;;;;;;;;;;5029099;28;20493;-68
2022/01/16 00:25:06;;;;;;;34.17;22.43;;;;;;;;;;5036558;28;20025;-69
2022/01/16 00:27:31;;;;;;;35.17;22.90;;;;;;;;;;5033500;28;20079;-69
2022/01/16 00:29:57;;;;;;;38.50;25.60;;;;;;;;;;5017205;28;20013;-69
2022/01/16 00:32:22;;;;;;;37.67;24.00;;;;;;;;;;5032498;28;20041;-69
2022/01/16 00:34:47;;;;;;;37.30;23.83;;;;;;;;;;5046075;28;20025;-69
2022/01/16 00:37:12;;;;;;;37.70;23.23;;;;;;;;;;5034704;28;20021;-69
2022/01/16 00:39:37;;;;;;;33.37;22.97;;;;;;;;;;5046771;28;20028;-69
2022/01/16 00:42:03;;;;;;;32.87;21.47;;;;;;;;;;5026806;28;20073;-69
2022/01/16 00:44:28;;;;;;;35.57;22.13;;;;;;;;;;5053288;28;20021;-69
2022/01/16 00:46:53;;;;;;;33.97;21.50;;;;;;;;;;5031607;28;20018;-69
2022/01/16 00:49:18;;;;;;;32.20;19.60;;;;;;;;;;5032668;28;20025;-69
2022/01/16 00:51:44;;;;;;;29.63;20.60;;;;;;;;;;5033017;28;20541;-69
2022/01/16 00:54:10;;;;;;;33.17;20.90;;;;;;;;;;5032506;28;20046;-69
2022/01/16 00:56:35;;;;;;;32.07;21.43;;;;;;;;;;5013160;28;20029;-69
2022/01/16 00:59:00;;;;;;;38.77;24.27;;;;;;;;;;5038323;28;20037;-69
2022/01/16 01:01:25;;;;;;;37.90;24.03;;;;;;;;;;5029070;28;20029;-69
2022/01/16 01:03:51;;;;;;;35.87;22.70;;;;;;;;;;5032880;28;20061;-69
2022/01/16 01:06:16;;;;;;;36.10;24.50;;;;;;;;;;5036259;28;20096;-68
2022/01/16 01:08:41;;;;;;;30.20;20.10;;;;;;;;;;5033160;28;20025;-67
2022/01/16 01:11:11;;;;;;;39.10;24.17;;;;;;;;;;5039249;28;20033;-68
2022/01/16 01:19:12;;;;;;;31.33;21.10;;;;;;;;;;5027145;28;20470;-68
2022/01/16 01:21:37;;;;;;;30.23;18.80;;;;;;;;;;5018247;28;20089;-68
2022/01/16 01:24:03;;;;;;;27.07;17.80;;;;;;;;;;5027481;28;20100;-68
2022/01/16 01:26:35;;;;;;;27.67;17.50;;;;;;;;;;5016052;28;20037;-68
2022/01/16 01:29:00;;;;;;;26.30;16.90;;;;;;;;;;5031532;28;20030;-68
2022/01/16 01:31:26;;;;;;;25.57;16.03;;;;;;;;;;5046365;28;20078;-68
2022/01/16 01:33:51;;;;;;;24.10;15.67;;;;;;;;;;5039814;28;20041;-68
2022/01/16 01:36:16;;;;;;;28.87;18.13;;;;;;;;;;5032298;28;20148;-70
2022/01/16 01:38:42;;;;;;;27.37;18.97;;;;;;;;;;5030884;28;20127;-69
2022/01/16 01:41:07;;;;;;;28.53;17.87;;;;;;;;;;5013103;28;20030;-69
2022/01/16 01:51:42;;;;;;;31.60;19.43;;;;;;;;;;5028824;28;20087;-70
2022/01/16 01:54:07;;;;;;;29.23;18.40;;;;;;;;;;5031142;28;20386;-69
2022/01/16 01:56:33;;;;;;;28.20;17.80;;;;;;;;;;5032144;28;20068;-69
2022/01/16 01:58:59;;;;;;;27.57;18.87;;;;;;;;;;5034299;28;20402;-69
2022/01/16 02:01:25;;;;;;;30.33;17.83;;;;;;;;;;5036808;28;20025;-69
2022/01/16 02:03:50;;;;;;;30.40;17.57;;;;;;;;;;5041018;28;20024;-69
2022/01/16 02:06:18;;;;;;;27.53;17.53;;;;;;;;;;5032071;28;20393;-69
2022/01/16 02:08:44;;;;;;;26.40;15.83;;;;;;;;;;5032677;28;20018;-69
2022/01/16 02:11:13;;;;;;;27.07;16.17;;;;;;;;;;5029458;28;20021;-69
2022/01/16 02:13:48;;;;;;;29.40;16.20;;;;;;;;;;5037726;28;20079;-69
2022/01/16 02:31:01;;;;;;;30.60;19.60;;;;;;;;;;5028423;28;20040;-68
2022/01/16 02:33:21;;;;;;;31.20;19.83;;;;;;;;;;5028880;28;20044;-69
2022/01/16 02:35:40;;;;;;;29.17;20.20;;;;;;;;;;5025213;28;20037;-69
2022/01/16 02:38:08;;;;;;;33.87;20.43;;;;;;;;;;5031666;28;20028;-69
2022/01/16 02:40:35;;;;;;;33.00;21.00;;;;;;;;;;5029937;28;20431;-69
2022/01/16 02:43:02;;;;;;;32.87;20.77;;;;;;;;;;5007512;28;20160;-69
2022/01/16 02:45:29;;;;;;;33.17;20.27;;;;;;;;;;5016713;28;20041;-69
2022/01/16 02:47:55;;;;;;;31.97;21.17;;;;;;;;;;5032154;28;20045;-69
2022/01/16 02:50:21;;;;;;;37.07;21.67;;;;;;;;;;5040697;28;20027;-69
2022/01/16 02:52:47;;;;;;;34.07;21.50;;;;;;;;;;5012100;28;20057;-70
2022/01/16 02:55:14;;;;;;;30.40;21.33;;;;;;;;;;5045530;28;20029;-69
2022/01/16 02:57:39;;;;;;;32.43;19.67;;;;;;;;;;5031354;28;20041;-68
2022/01/16 03:00:05;;;;;;;29.87;19.07;;;;;;;;;;5032813;28;20029;-68
2022/01/16 03:02:30;;;;;;;26.23;17.10;;;;;;;;;;5044875;28;20017;-69
2022/01/16 03:04:55;;;;;;;28.57;16.57;;;;;;;;;;5032554;28;20030;-68
2022/01/16 03:07:22;;;;;;;23.63;15.00;;;;;;;;;;5028679;28;20474;-69
2022/01/16 03:10:15;;;;;;;27.83;15.73;;;;;;;;;;5030439;28;20021;-69
2022/01/16 03:12:41;;;;;;;23.27;14.77;;;;;;;;;;5027987;28;20076;-69
2022/01/16 03:15:07;;;;;;;20.37;13.60;;;;;;;;;;5014861;28;20014;-69
2022/01/16 03:21:52;;;;;;;20.60;12.03;;;;;;;;;;5041708;28;20493;-68
2022/01/16 03:23:04;;;;;;;18.47;11.30;;;;;;;;;;5022242;28;20536;-69
2022/01/16 03:25:29;;;;;;;17.97;11.97;;;;;;;;;;5033596;28;20026;-69
2022/01/16 03:27:54;;;;;;;19.63;11.53;;;;;;;;;;5031390;28;20532;-68
2022/01/16 03:30:19;;;;;;;16.37;10.10;;;;;;;;;;5028482;28;20474;-69
2022/01/16 03:32:44;;;;;;;16.77;10.83;;;;;;;;;;5030881;28;20466;-68
2022/01/16 03:35:10;;;;;;;16.30;9.90;;;;;;;;;;5031596;28;20083;-69
2022/01/16 03:37:35;;;;;;;17.83;10.43;;;;;;;;;;5030550;28;20087;-69
2022/01/16 03:40:04;;;;;;;17.93;8.63;;;;;;;;;;5029444;28;20029;-69
2022/01/16 03:42:32;;;;;;;15.10;9.67;;;;;;;;;;5024362;28;20116;-68
2022/01/16 03:44:57;;;;;;;13.87;9.37;;;;;;;;;;5031244;28;20029;-69
2022/01/16 03:47:22;;;;;;;14.23;9.10;;;;;;;;;;5022523;28;20090;-69
2022/01/16 03:49:48;;;;;;;12.90;8.83;;;;;;;;;;5012962;28;20078;-68
2022/01/16 03:52:13;;;;;;;14.73;8.83;;;;;;;;;;5051484;28;20044;-69
2022/01/16 03:54:38;;;;;;;13.70;8.00;;;;;;;;;;5036224;28;20413;-68
2022/01/16 03:57:03;;;;;;;13.77;8.53;;;;;;;;;;5018566;28;20029;-68
2022/01/16 03:59:29;;;;;;;12.43;8.23;;;;;;;;;;5026432;28;20071;-68
2022/01/16 04:01:54;;;;;;;12.17;7.67;;;;;;;;;;5036721;28;20021;-69
2022/01/16 04:04:19;;;;;;;11.23;6.77;;;;;;;;;;5042964;28;20017;-69
2022/01/16 04:06:45;;;;;;;11.47;7.27;;;;;;;;;;5046854;28;20064;-70
2022/01/16 04:09:10;;;;;;;12.10;7.57;;;;;;;;;;5035209;28;20021;-69
2022/01/16 04:11:37;;;;;;;12.23;7.40;;;;;;;;;;5016471;28;20050;-68
2022/01/16 04:14:09;;;;;;;12.70;7.60;;;;;;;;;;5046029;28;20533;-69
2022/01/16 04:16:35;;;;;;;12.10;7.70;;;;;;;;;;5027086;28;20038;-69
2022/01/16 04:19:00;;;;;;;15.27;8.40;;;;;;;;;;5033699;28;20033;-68
2022/01/16 04:21:27;;;;;;;12.43;8.10;;;;;;;;;;5032476;28;20034;-68
2022/01/16 04:23:53;;;;;;;12.00;7.80;;;;;;;;;;5032951;28;20108;-69
2022/01/16 04:26:18;;;;;;;15.00;8.67;;;;;;;;;;5033353;28;20037;-69
2022/01/16 04:28:46;;;;;;;12.10;7.20;;;;;;;;;;5029295;28;20092;-69
2022/01/16 04:31:11;;;;;;;10.67;7.17;;;;;;;;;;5044828;28;20024;-67
2022/01/16 04:33:36;;;;;;;10.80;7.23;;;;;;;;;;5033985;28;20025;-68
2022/01/16 04:36:02;;;;;;;11.97;7.57;;;;;;;;;;5032951;28;20067;-68
2022/01/16 04:38:27;;;;;;;10.27;6.17;;;;;;;;;;5033170;28;20422;-69
2022/01/16 04:43:49;;;;;;;11.00;7.43;;;;;;;;;;5031151;28;20091;-68
2022/01/16 04:46:15;;;;;;;10.17;7.17;;;;;;;;;;5036989;28;20017;-68
2022/01/16 04:48:40;;;;;;;11.10;6.80;;;;;;;;;;5038488;28;20441;-68
2022/01/16 04:51:05;;;;;;;11.67;7.17;;;;;;;;;;5033912;28;20026;-69
2022/01/16 04:53:30;;;;;;;11.10;7.67;;;;;;;;;;5051708;28;20045;-68
2022/01/16 04:55:55;;;;;;;12.87;8.07;;;;;;;;;;5053569;28;20123;-69
2022/01/16 04:58:21;;;;;;;12.10;7.53;;;;;;;;;;5030776;28;20036;-67
2022/01/16 05:00:46;;;;;;;11.00;7.40;;;;;;;;;;5015175;28;20034;-68
2022/01/16 05:03:12;;;;;;;14.33;7.90;;;;;;;;;;5042774;28;20080;-68
2022/01/16 05:05:37;;;;;;;9.73;7.13;;;;;;;;;;5033085;28;20281;-68
2022/01/16 05:08:02;;;;;;;9.97;7.27;;;;;;;;;;5038415;28;20024;-68
2022/01/16 05:10:28;;;;;;;11.27;6.87;;;;;;;;;;5016141;28;20025;-68
2022/01/16 05:12:53;;;;;;;9.87;7.00;;;;;;;;;;5038691;28;20363;-68
2022/01/16 05:18:07;;;;;;;9.23;7.10;;;;;;;;;;5016627;28;20045;-68
2022/01/16 05:20:32;;;;;;;11.73;7.43;;;;;;;;;;5031857;28;20030;-69
2022/01/16 05:22:58;;;;;;;10.97;7.23;;;;;;;;;;5031507;28;20045;-68
2022/01/16 05:25:23;;;;;;;9.97;6.57;;;;;;;;;;5031233;28;20025;-69
2022/01/16 05:27:48;;;;;;;10.33;6.60;;;;;;;;;;5014155;28;20052;-69
2022/01/16 05:30:13;;;;;;;9.90;7.17;;;;;;;;;;5028289;28;20461;-69
2022/01/16 05:32:39;;;;;;;11.93;7.67;;;;;;;;;;5019094;28;21099;-68
2022/01/16 05:35:04;;;;;;;13.83;7.10;;;;;;;;;;5014924;28;20129;-68
2022/01/16 05:37:29;;;;;;;12.67;7.50;;;;;;;;;;5021105;28;20482;-69
2022/01/16 05:39:55;;;;;;;10.37;6.93;;;;;;;;;;5035420;28;20131;-69
2022/01/16 05:42:20;;;;;;;11.50;7.07;;;;;;;;;;5026882;28;20037;-68
2022/01/16 05:44:45;;;;;;;9.27;7.17;;;;;;;;;;5013013;28;20029;-69
2022/01/16 05:47:12;;;;;;;13.63;7.70;;;;;;;;;;5031852;28;20052;-68
2022/01/16 05:49:39;;;;;;;12.97;7.93;;;;;;;;;;5013344;28;20530;-68
2022/01/16 05:52:05;;;;;;;11.67;7.83;;;;;;;;;;5013228;28;20135;-69
2022/01/16 05:54:30;;;;;;;12.47;7.83;;;;;;;;;;5036208;28;20572;-69
2022/01/16 05:56:55;;;;;;;11.17;7.43;;;;;;;;;;5015324;28;20029;-69
2022/01/16 05:59:20;;;;;;;10.57;6.60;;;;;;;;;;5033136;28;20026;-69
2022/01/16 06:01:46;;;;;;;11.47;6.07;;;;;;;;;;5034244;28;20025;-68
2022/01/16 06:04:11;;;;;;;10.87;6.43;;;;;;;;;;5039182;28;20108;-68
2022/01/16 06:06:36;;;;;;;9.67;7.07;;;;;;;;;;5013140;28;20061;-69
2022/01/16 06:09:01;;;;;;;12.50;7.50;;;;;;;;;;5017977;28;20035;-70
2022/01/16 06:11:27;;;;;;;11.20;7.23;;;;;;;;;;5032831;28;20057;-69
2022/01/16 06:13:52;;;;;;;11.30;7.37;;;;;;;;;;5017480;28;20056;-69
2022/01/16 06:16:17;;;;;;;11.30;7.27;;;;;;;;;;5007374;28;20079;-68
2022/01/16 06:18:43;;;;;;;9.83;7.27;;;;;;;;;;5031275;28;20021;-68
2022/01/16 06:21:08;;;;;;;10.27;6.83;;;;;;;;;;5012762;28;20528;-69
2022/01/16 06:23:33;;;;;;;9.23;6.47;;;;;;;;;;5013744;28;20028;-68
2022/01/16 06:25:58;;;;;;;11.07;6.87;;;;;;;;;;5027548;28;20117;-69
2022/01/16 06:28:24;;;;;;;10.90;7.13;;;;;;;;;;5030151;28;20021;-69
2022/01/16 06:30:49;;;;;;;9.10;6.13;;;;;;;;;;5030352;28;20045;-69
2022/01/16 06:33:15;;;;;;;10.50;6.60;;;;;;;;;;5027840;28;20036;-69
2022/01/16 06:35:40;;;;;;;11.00;6.87;;;;;;;;;;5028444;28;20037;-68
2022/01/16 06:38:05;;;;;;;12.27;6.87;;;;;;;;;;5030647;28;20037;-69
2022/01/16 06:40:30;;;;;;;9.67;6.83;;;;;;;;;;5013361;28;20283;-69
2022/01/16 06:42:56;;;;;;;9.50;6.20;;;;;;;;;;5016178;28;20076;-68
2022/01/16 06:45:21;;;;;;;11.10;6.93;;;;;;;;;;5014931;28;20014;-68
2022/01/16 06:47:46;;;;;;;11.23;6.53;;;;;;;;;;5018596;28;20022;-69
2022/01/16 06:50:11;;;;;;;9.77;6.63;;;;;;;;;;5044226;28;20040;-69
2022/01/16 06:52:37;;;;;;;11.30;7.30;;;;;;;;;;5031608;28;20136;-68
2022/01/16 06:55:02;;;;;;;11.73;6.67;;;;;;;;;;5030418;28;20033;-68
2022/01/16 06:57:28;;;;;;;11.50;7.53;;;;;;;;;;5028947;28;20422;-69
2022/01/16 06:59:53;;;;;;;11.43;6.57;;;;;;;;;;5025408;28;20032;-68
2022/01/16 07:02:18;;;;;;;11.87;7.10;;;;;;;;;;5032944;28;20026;-68
2022/01/16 07:04:47;;;;;;;10.40;7.00;;;;;;;;;;5033289;28;20090;-69
2022/01/16 07:07:12;;;;;;;12.17;7.57;;;;;;;;;;5039509;28;20025;-69
2022/01/16 07:09:39;;;;;;;11.37;7.30;;;;;;;;;;5029359;28;20090;-68
2022/01/16 07:12:04;;;;;;;13.00;7.77;;;;;;;;;;5015277;28;20079;-69
2022/01/16 07:14:29;;;;;;;12.07;7.73;;;;;;;;;;5020451;28;20037;-68
2022/01/16 07:16:54;;;;;;;12.03;7.57;;;;;;;;;;5018160;28;20037;-68
2022/01/16 07:19:20;;;;;;;11.33;7.50;;;;;;;;;;5027917;28;20070;-68
2022/01/16 07:21:45;;;;;;;11.00;6.63;;;;;;;;;;5024746;28;20022;-68
2022/01/16 07:24:15;;;;;;;11.40;7.73;;;;;;;;;;4994813;28;20030;-69
2022/01/16 07:26:41;;;;;;;11.40;7.37;;;;;;;;;;5021731;28;20429;-68
2022/01/16 07:29:07;;;;;;;11.90;7.60;;;;;;;;;;5031064;28;20092;-69
2022/01/16 07:31:32;;;;;;;10.57;7.43;;;;;;;;;;5020777;28;20447;-68
2022/01/16 07:33:58;;;;;;;11.10;7.00;;;;;;;;;;5037271;28;20130;-68
2022/01/16 07:36:24;;;;;;;9.27;6.17;;;;;;;;;;5024742;28;20029;-69
2022/01/16 07:38:49;;;;;;;12.10;7.30;;;;;;;;;;5012129;28;20040;-67
2022/01/16 07:41:14;;;;;;;10.17;6.77;;;;;;;;;;5050362;28;20032;-68
2022/01/16 07:43:39;;;;;;;10.57;7.30;;;;;;;;;;5016534;28;20064;-69
2022/01/16 07:46:04;;;;;;;11.93;7.30;;;;;;;;;;5032023;28;20037;-69
2022/01/16 07:48:30;;;;;;;11.93;6.37;;;;;;;;;;5029359;28;20045;-68
2022/01/16 07:50:55;;;;;;;10.37;7.03;;;;;;;;;;5023210;28;20018;-69
2022/01/16 07:53:20;;;;;;;9.83;6.40;;;;;;;;;;5016674;28;20132;-69
2022/01/16 07:55:45;;;;;;;9.97;5.53;;;;;;;;;;5045462;28;20063;-68
2022/01/16 07:58:11;;;;;;;11.93;7.43;;;;;;;;;;5027188;28;20021;-69
2022/01/16 08:00:36;;;;;;;12.93;7.07;;;;;;;;;;5030453;28;20045;-69
2022/01/16 08:03:02;;;;;;;12.67;7.13;;;;;;;;;;5050019;28;20029;-69
2022/01/16 08:05:28;;;;;;;10.80;7.47;;;;;;;;;;5049294;28;20460;-69
2022/01/16 08:07:53;;;;;;;10.17;6.47;;;;;;;;;;5028414;28;20056;-69
2022/01/16 08:10:18;;;;;;;11.53;6.50;;;;;;;;;;5028148;28;20049;-69
2022/01/16 08:12:43;;;;;;;11.07;7.23;;;;;;;;;;5020807;28;20033;-69
2022/01/16 08:15:09;;;;;;;10.23;6.43;;;;;;;;;;5030943;28;20026;-69
2022/01/16 08:17:36;;;;;;;11.00;7.17;;;;;;;;;;5008891;28;20030;-69
2022/01/16 08:20:02;;;;;;;9.47;6.07;;;;;;;;;;5021674;28;20165;-68
2022/01/16 08:22:27;;;;;;;9.43;6.20;;;;;;;;;;5013620;28;20055;-67
2022/01/16 08:24:52;;;;;;;10.47;6.80;;;;;;;;;;5007833;28;20471;-69
2022/01/16 08:27:17;;;;;;;10.23;6.43;;;;;;;;;;5035168;28;20026;-68
2022/01/16 08:29:43;;;;;;;8.97;5.97;;;;;;;;;;5034830;28;20025;-68
2022/01/16 08:32:08;;;;;;;8.60;5.93;;;;;;;;;;5042689;28;20061;-68
2022/01/16 08:34:34;;;;;;;10.93;6.57;;;;;;;;;;5016405;28;20034;-68
2022/01/16 08:36:59;;;;;;;10.20;6.70;;;;;;;;;;5030299;28;20502;-68
2022/01/16 08:39:24;;;;;;;8.53;6.03;;;;;;;;;;5046423;28;20532;-68
2022/01/16 08:41:49;;;;;;;8.33;5.47;;;;;;;;;;5011852;28;20524;-68
2022/01/16 08:44:14;;;;;;;7.97;5.20;;;;;;;;;;5025203;28;20026;-68
2022/01/16 08:46:40;;;;;;;7.93;5.07;;;;;;;;;;5032536;28;20049;-68
2022/01/16 08:49:05;;;;;;;7.30;5.00;;;;;;;;;;5038449;28;20018;-68
2022/01/16 08:51:30;;;;;;;6.33;3.87;;;;;;;;;;5016562;28;20037;-67
2022/01/16 08:53:55;;;;;;;7.30;5.27;;;;;;;;;;5032738;28;20498;-68
2022/01/16 08:56:20;;;;;;;7.83;5.07;;;;;;;;;;5032682;28;20493;-68
2022/01/16 08:58:46;;;;;;;6.73;4.80;;;;;;;;;;5031680;28;20040;-68
2022/01/16 09:01:11;;;;;;;8.10;4.97;;;;;;;;;;5026110;28;20186;-68
2022/01/16 09:03:38;;;;;;;8.17;4.77;;;;;;;;;;5033221;28;20025;-68
2022/01/16 09:06:04;;;;;;;8.10;5.30;;;;;;;;;;5027778;28;20032;-68
2022/01/16 09:08:29;;;;;;;5.90;4.37;;;;;;;;;;5024236;28;20022;-68
2022/01/16 09:10:54;;;;;;;8.33;5.10;;;;;;;;;;5022561;28;20164;-68
2022/01/16 09:13:20;;;;;;;8.07;5.10;;;;;;;;;;5031118;28;20503;-65
2022/01/16 09:15:47;;;;;;;6.63;4.63;;;;;;;;;;5039886;28;20520;-65
2022/01/16 09:18:13;;;;;;;8.03;5.53;;;;;;;;;;5024779;28;20037;-66
2022/01/16 09:20:38;;;;;;;6.80;5.20;;;;;;;;;;5020783;28;20033;-65
2022/01/16 09:23:03;;;;;;;7.13;5.33;;;;;;;;;;5020623;28;20061;-66
2022/01/16 09:25:28;;;;;;;7.93;5.47;;;;;;;;;;5022902;28;20473;-65
2022/01/16 09:27:54;;;;;;;7.37;4.93;;;;;;;;;;5021656;28;20120;-66
2022/01/16 09:30:20;;;;;;;6.73;4.67;;;;;;;;;;5036808;28;20029;-65
2022/01/16 09:32:45;;;;;;;7.70;5.40;;;;;;;;;;5030445;28;20025;-66
2022/01/16 09:35:11;;;;;;;6.23;4.93;;;;;;;;;;5024251;28;20028;-65
2022/01/16 09:37:37;;;;;;;7.73;5.27;;;;;;;;;;5022860;28;20593;-65
2022/01/16 09:40:03;;;;;;;6.93;4.67;;;;;;;;;;5022687;28;20103;-65
2022/01/16 09:42:28;;;;;;;6.53;4.90;;;;;;;;;;5016189;28;20030;-66
2022/01/16 09:44:54;;;;;;;8.03;5.17;;;;;;;;;;5022825;28;20029;-65
2022/01/16 09:47:19;;;;;;;7.87;4.80;;;;;;;;;;5024341;28;20121;-66
2022/01/16 09:49:45;;;;;;;6.97;4.87;;;;;;;;;;5025344;28;20025;-65
2022/01/16 09:52:10;;;;;;;7.87;5.20;;;;;;;;;;5027533;28;20033;-66
2022/01/16 09:54:38;;;;;;;7.57;5.33;;;;;;;;;;5026536;28;20132;-68
2022/01/16 09:57:05;;;;;;;8.07;5.00;;;;;;;;;;5014743;28;20069;-65
2022/01/16 09:59:30;;;;;;;9.17;5.00;;;;;;;;;;5034307;28;20038;-65
2022/01/16 10:01:55;;;;;;;7.90;5.33;;;;;;;;;;5022808;28;20025;-65
2022/01/16 10:04:28;;;;;;;7.20;4.43;;;;;;;;;;5028995;28;20137;-65
2022/01/16 10:06:57;;;;;;;7.40;4.60;;;;;;;;;;5030391;28;20048;-65
2022/01/16 10:09:22;;;;;;;7.20;4.63;;;;;;;;;;5029215;28;20036;-65
2022/01/16 10:11:55;;;;;;;8.07;5.67;;;;;;;;;;5016919;28;20022;-65
2022/01/16 10:14:26;;;;;;;7.30;4.80;;;;;;;;;;5021501;28;20527;-65
2022/01/16 10:16:51;;;;;;;7.77;5.10;;;;;;;;;;5026772;28;20028;-64
2022/01/16 10:19:24;;;;;;;8.88;6.05;;;;;;;;;;5037020;28;20136;-65
2022/01/16 10:21:50;;;;;;;10.43;6.00;;;;;;;;;;5028223;28;20026;-65
2022/01/16 10:24:26;;;;;;;8.90;5.32;;;;;;;;;;5029931;28;20025;-66
2022/01/16 10:27:11;;;;;;;8.95;5.82;;;;;;;;;;5027559;28;20033;-66
2022/01/16 10:29:36;;;;;;;7.57;5.07;;;;;;;;;;5031728;28;20072;-66
2022/01/16 10:32:15;;;;;;;7.50;4.25;;;;;;;;;;5020653;28;20498;-65
2022/01/16 10:34:41;;;;;;;8.40;5.22;;;;;;;;;;5018932;28;20029;-65
2022/01/16 10:37:24;;;;;;;7.53;4.60;;;;;;;;;;5025075;28;20496;-65
2022/01/16 10:39:54;;;;;;;8.75;5.22;;;;;;;;;;5025415;28;20030;-65
2022/01/16 10:42:19;;;;;;;7.32;4.22;;;;;;;;;;5011896;28;20554;-65
2022/01/16 10:44:44;;;;;;;8.85;5.53;;;;;;;;;;5031831;28;20026;-65
2022/01/16 10:47:42;;;;;;;9.05;5.28;;;;;;;;;;5020635;28;20013;-65
2022/01/16 10:50:13;;;;;;;7.30;4.60;;;;;;;;;;4979302;28;20038;-65
2022/01/16 10:52:49;;;;;;;4.78;2.60;;;;;;;;;;4982214;28;20034;-65
2022/01/16 10:55:14;;;;;;;7.82;3.97;;;;;;;;;;4975258;28;20027;-65
2022/01/16 10:57:40;;;;;;;8.40;5.18;;;;;;;;;;4987776;28;20046;-65
2022/01/16 11:00:17;;;;;;;7.70;4.70;;;;;;;;;;4974039;28;20081;-66
2022/01/16 11:02:44;;;;;;;6.17;3.73;;;;;;;;;;4976443;28;20018;-66
2022/01/16 11:05:10;;;;;;;7.53;4.60;;;;;;;;;;4986267;28;20182;-66
2022/01/16 11:07:35;;;;;;;6.80;3.97;;;;;;;;;;4979916;28;20170;-66
2022/01/16 11:10:11;;;;;;;6.57;4.03;;;;;;;;;;4974816;28;20022;-66
2022/01/16 11:12:36;;;;;;;5.43;3.70;;;;;;;;;;4976780;28;20225;-66
2022/01/16 11:15:03;;;;;;;6.37;3.73;;;;;;;;;;4982165;28;20105;-65
2022/01/16 11:17:28;;;;;;;5.77;3.80;;;;;;;;;;4986150;28;20030;-65
2022/01/16 11:19:53;;;;;;;5.77;4.03;;;;;;;;;;4978601;28;20399;-65
2022/01/16 11:22:23;;;;;;;6.17;3.53;;;;;;;;;;4964887;28;20534;-66
2022/01/16 11:25:01;;;;;;;7.07;3.60;;;;;;;;;;4968457;28;20219;-65
2022/01/16 11:27:26;;;;;;;7.60;3.90;;;;;;;;;;5024419;28;20029;-65
2022/01/16 11:29:51;;;;;;;4.43;2.23;;;;;;;;;;5024718;28;20022;-65
2022/01/16 11:32:16;;;;;;;5.27;2.80;;;;;;;;;;5030187;28;20033;-67
2022/01/16 11:34:41;;;;;;;4.27;2.57;;;;;;;;;;5029381;28;20120;-66
2022/01/16 11:37:07;;;;;;;4.60;2.93;;;;;;;;;;5024602;28;20030;-66
2022/01/16 11:39:33;;;;;;;5.27;2.60;;;;;;;;;;5021987;28;20037;-66
2022/01/16 11:41:59;;;;;;;5.07;3.00;;;;;;;;;;5018808;28;20079;-66
2022/01/16 11:44:28;;;;;;;6.03;2.90;;;;;;;;;;5003651;28;20395;-66
2022/01/16 11:46:58;;;;;;;5.37;2.93;;;;;;;;;;5021308;28;20525;-67
2022/01/16 11:49:32;;;;;;;4.17;2.30;;;;;;;;;;5027361;28;20053;-66
2022/01/16 11:52:03;;;;;;;5.10;2.63;;;;;;;;;;5041073;28;20033;-67
2022/01/16 11:54:37;;;;;;;5.70;3.20;;;;;;;;;;5024795;28;20328;-67
2022/01/16 11:57:16;;;;;;;5.30;3.65;;;;;;;;;;5029844;28;20517;-67
2022/01/16 11:59:41;;;;;;;4.80;3.40;;;;;;;;;;5026518;28;20033;-66
2022/01/16 12:02:09;;;;;;;5.73;3.53;;;;;;;;;;5029628;28;20460;-67
2022/01/16 12:04:36;;;;;;;7.97;3.90;;;;;;;;;;5031071;28;20466;-65
2022/01/16 12:07:13;;;;;;;4.93;3.23;;;;;;;;;;5015508;28;20030;-65
2022/01/16 12:09:48;;;;;;;5.67;3.67;;;;;;;;;;5020960;28;20500;-65
2022/01/16 12:12:16;;;;;;;;;;;;;;;;;;5033932;28;20072;-65
2022/01/16 12:15:01;;;;;;;6.77;4.20;;;;;;;;;;5018756;28;19997;-66
2022/01/16 12:17:32;;;;;;;6.07;4.20;;;;;;;;;;5015443;28;20026;-66
2022/01/16 12:20:22;;;;;;;7.87;4.67;;;;;;;;;;5037508;28;20049;-65
2022/01/16 12:22:58;;;;;;;4.83;2.60;;;;;;;;;;5026587;28;20508;-65
2022/01/16 12:25:34;;;;;;;6.33;3.97;;;;;;;;;;5023878;28;20541;-65
2022/01/16 12:28:02;;;;;;;7.13;4.27;;;;;;;;;;5033652;28;20024;-65
2022/01/16 12:30:32;;;;;;;6.20;3.93;;;;;;;;;;5027677;28;20095;-66
2022/01/16 12:32:57;;;;;;;7.33;3.97;;;;;;;;;;5029632;28;20021;-65
2022/01/16 12:35:40;;;;;;;6.83;4.60;;;;;;;;;;5024785;28;20466;-65
2022/01/16 12:38:10;;;;;;;7.70;5.17;;;;;;;;;;5043496;28;20010;-65
2022/01/16 12:40:38;;;;;;;6.87;3.60;;;;;;;;;;5022981;28;20049;-65
2022/01/16 12:43:05;;;;;;;6.47;4.00;;;;;;;;;;5025325;28;20017;-65
2022/01/16 12:45:37;;;;;;;7.63;4.57;;;;;;;;;;5019007;28;20084;-65
2022/01/16 12:48:03;;;;;;;7.07;3.77;;;;;;;;;;5014506;28;20511;-66
2022/01/16 12:50:29;;;;;;;6.77;4.63;;;;;;;;;;5018196;28;20065;-66
2022/01/16 12:52:54;;;;;;;7.50;4.50;;;;;;;;;;5027422;28;20490;-66
2022/01/16 12:55:24;;;;;;;5.97;3.60;;;;;;;;;;5033413;28;20099;-66
2022/01/16 12:57:49;;;;;;;6.17;4.27;;;;;;;;;;5046534;28;20030;-66
2022/01/16 13:00:15;;;;;;;7.23;4.33;;;;;;;;;;5018708;28;20076;-65
2022/01/16 13:02:41;;;;;;;5.57;4.00;;;;;;;;;;5036128;28;20076;-66
2022/01/16 13:05:07;;;;;;;10.43;4.83;;;;;;;;;;5029973;28;20104;-65
2022/01/16 13:07:33;;;;;;;7.27;3.03;;;;;;;;;;5031806;28;20092;-66
2022/01/16 13:09:58;;;;;;;8.27;4.63;;;;;;;;;;5031606;28;20100;-66
2022/01/16 13:12:24;;;;;;;7.47;4.13;;;;;;;;;;5018880;28;20018;-65
2022/01/16 13:14:49;;;;;;;7.77;4.00;;;;;;;;;;5025686;28;20133;-65
2022/01/16 13:17:14;;;;;;;6.93;3.97;;;;;;;;;;5026063;28;20037;-65
2022/01/16 13:19:50;;;;;;;5.77;3.53;;;;;;;;;;5025323;28;20148;-65
2022/01/16 13:22:16;;;;;;;7.23;4.27;;;;;;;;;;5006293;28;20036;-65
2022/01/16 13:24:49;;;;;;;6.87;3.83;;;;;;;;;;5013087;28;20124;-65
2022/01/16 13:27:16;;;;;;;8.10;4.97;;;;;;;;;;5020864;28;20024;-66
2022/01/16 13:29:46;;;;;;;7.40;3.40;;;;;;;;;;5029806;28;20439;-66
2022/01/16 13:32:13;;;;;;;6.63;4.33;;;;;;;;;;5032700;28;20036;-66
2022/01/16 13:34:57;;;;;;;7.17;4.50;;;;;;;;;;5032336;28;20022;-66
2022/01/16 13:37:27;;;;;;;6.77;4.00;;;;;;;;;;5031810;28;20061;-66
2022/01/16 13:39:57;;;;;;;7.33;4.60;;;;;;;;;;5042674;28;20167;-66
2022/01/16 13:42:32;;;;;;;7.13;4.17;;;;;;;;;;5018694;28;20056;-66
2022/01/16 13:45:17;;;;;;;5.75;4.10;;;;;;;;;;5032053;28;20075;-65
2022/01/16 13:47:55;;;;;;;11.43;4.32;;;;;;;;;;5018664;28;20057;-65
2022/01/16 13:50:21;;;;;;;8.03;4.60;;;;;;;;;;5030067;28;20039;-65
2022/01/16 13:52:51;;;;;;;8.97;4.90;;;;;;;;;;5031862;28;20017;-65
2022/01/16 13:55:16;;;;;;;8.00;4.60;;;;;;;;;;5033295;28;20453;-66
2022/01/16 13:57:42;;;;;;;8.17;4.93;;;;;;;;;;5031434;28;20116;-66
2022/01/16 14:00:08;;;;;;;7.17;4.43;;;;;;;;;;5028083;28;20036;-65
2022/01/16 14:02:34;;;;;;;6.93;4.47;;;;;;;;;;5032652;28;20087;-66
2022/01/16 14:05:00;;;;;;;7.83;4.73;;;;;;;;;;5028232;28;20034;-65
2022/01/16 14:07:25;;;;;;;7.63;4.43;;;;;;;;;;5025400;28;20112;-65
2022/01/16 14:09:52;;;;;;;7.30;4.27;;;;;;;;;;5031132;28;20117;-66
2022/01/16 14:12:18;;;;;;;7.27;4.40;;;;;;;;;;5022050;28;20060;-66
2022/01/16 14:14:43;;;;;;;8.83;5.00;;;;;;;;;;5029557;28;20033;-66
2022/01/16 14:22:18;;;;;;;7.23;4.70;;;;;;;;;;5024926;28;20041;-65
2022/01/16 14:24:48;;;;;;;7.30;4.17;;;;;;;;;;5031172;28;20517;-66
2022/01/16 14:27:19;;;;;;;6.83;4.57;;;;;;;;;;5032378;28;20017;-66
2022/01/16 14:29:45;;;;;;;5.40;3.77;;;;;;;;;;5020652;28;20027;-65
2022/01/16 14:32:10;;;;;;;7.50;4.63;;;;;;;;;;5021816;28;20032;-65
2022/01/16 14:34:36;;;;;;;6.10;3.53;;;;;;;;;;5023743;28;20018;-66
2022/01/16 14:37:03;;;;;;;7.10;4.27;;;;;;;;;;5021586;28;20057;-65
2022/01/16 14:39:28;;;;;;;7.13;4.47;;;;;;;;;;5023337;28;20070;-66
2022/01/16 14:41:54;;;;;;;7.40;4.83;;;;;;;;;;5017023;28;20437;-69
2022/01/16 14:44:24;;;;;;;7.43;4.77;;;;;;;;;;5019267;28;20108;-64
2022/01/16 14:46:50;;;;;;;6.47;4.00;;;;;;;;;;5021537;28;20025;-64
2022/01/16 14:49:15;;;;;;;6.67;4.20;;;;;;;;;;5027718;28;20032;-66
2022/01/16 14:51:41;;;;;;;7.27;4.40;;;;;;;;;;5020496;28;20033;-67
2022/01/16 14:54:06;;;;;;;6.90;3.77;;;;;;;;;;5024732;28;20053;-71
2022/01/16 14:56:32;;;;;;;5.57;3.67;;;;;;;;;;5021929;28;20044;-68
2022/01/16 14:58:57;;;;;;;5.77;3.77;;;;;;;;;;5016501;28;20432;-64
2022/01/16 15:01:23;;;;;;;4.83;3.47;;;;;;;;;;5019461;28;20021;-64
2022/01/16 15:03:48;;;;;;;6.90;4.70;;;;;;;;;;5026913;28;20029;-68
2022/01/16 15:06:13;;;;;;;5.40;4.17;;;;;;;;;;5021306;28;20033;-66
2022/01/16 15:08:40;;;;;;;5.07;3.07;;;;;;;;;;5038776;28;20024;-66
2022/01/16 15:11:06;;;;;;;5.70;4.20;;;;;;;;;;5020702;28;20135;-67
2022/01/16 15:13:31;;;;;;;6.70;4.27;;;;;;;;;;5020690;28;20488;-67
2022/01/16 15:15:56;;;;;;;7.00;4.37;;;;;;;;;;5027147;28;20026;-66